createdAt,value
2019-05-02T00:00:20.118Z,9.30
2019-05-02T00:02:48.853Z,9.20
2019-05-02T00:05:18.010Z,9.20
2019-05-02T00:07:46.667Z,9.40
2019-05-02T00:10:20.010Z,9.40
2019-05-02T00:12:50.682Z,9.40
2019-05-02T00:15:20.798Z,9.40
2019-05-02T00:17:49.416Z,9.50
2019-05-02T00:20:21.159Z,9.50
2019-05-02T00:22:52.279Z,9.50
2019-05-02T00:25:18.754Z,9.60
2019-05-02T00:27:47.311Z,9.50
2019-05-02T00:30:17.309Z,9.50
2019-05-02T00:32:45.865Z,9.50
2019-05-02T00:35:33.766Z,9.50
2019-05-02T00:38:02.682Z,9.50
2019-05-02T00:40:32.386Z,9.60
2019-05-02T00:43:00.937Z,9.70
2019-05-02T00:45:29.698Z,9.80
2019-05-02T00:47:59.901Z,9.80
2019-05-02T00:50:30.146Z,9.90
2019-05-02T00:52:58.769Z,9.80
2019-05-02T00:55:28.872Z,9.90
2019-05-02T00:57:57.732Z,9.90
2019-05-02T01:00:26.551Z,9.90
2019-05-02T01:02:59.577Z,10.00
2019-05-02T01:05:28.138Z,10.00
2019-05-02T01:08:01.169Z,9.90
2019-05-02T01:10:27.322Z,9.90
2019-05-02T01:12:55.937Z,9.90
2019-05-02T01:15:24.519Z,9.90
2019-05-02T01:17:53.175Z,9.70
2019-05-02T01:20:26.921Z,9.70
2019-05-02T01:22:53.631Z,9.60
2019-05-02T01:25:22.272Z,9.50
2019-05-02T01:28:12.720Z,9.40
2019-05-02T01:31:06.025Z,9.30
2019-05-02T01:33:41.614Z,9.20
2019-05-02T01:36:08.760Z,9.30
2019-05-02T01:38:45.791Z,9.30
2019-05-02T01:41:14.377Z,9.10
2019-05-02T01:43:43.308Z,9.20
2019-05-02T01:46:12.091Z,9.30
2019-05-02T01:48:45.834Z,9.30
2019-05-02T01:51:12.149Z,9.20
2019-05-02T01:53:40.818Z,9.00
2019-05-02T01:56:09.414Z,8.90
2019-05-02T01:58:37.938Z,8.70
2019-05-02T02:01:06.629Z,8.80
2019-05-02T02:03:35.298Z,9.00
2019-05-02T02:06:08.044Z,9.10
2019-05-02T02:08:34.401Z,9.10
2019-05-02T02:11:02.994Z,9.00
2019-05-02T02:13:36.597Z,8.80
2019-05-02T02:16:04.482Z,8.80
2019-05-02T02:18:33.716Z,8.80
2019-05-02T02:21:20.152Z,8.90
2019-05-02T02:23:59.811Z,8.90
2019-05-02T02:26:28.366Z,9.10
2019-05-02T02:28:57.029Z,9.00
2019-05-02T02:31:25.603Z,9.00
2019-05-02T02:33:54.184Z,9.10
2019-05-02T02:36:31.347Z,9.10
2019-05-02T02:38:53.022Z,9.10
2019-05-02T02:41:21.652Z,9.10
2019-05-02T02:43:54.755Z,9.10
2019-05-02T02:46:30.827Z,9.10
2019-05-02T02:48:56.952Z,9.00
2019-05-02T02:51:26.367Z,9.00
2019-05-02T02:54:03.207Z,9.00
2019-05-02T02:56:25.521Z,9.00
2019-05-02T02:58:54.127Z,8.90
2019-05-02T03:01:28.456Z,8.90
2019-05-02T03:03:53.060Z,8.80
2019-05-02T03:06:21.606Z,8.80
2019-05-02T03:08:50.496Z,8.80
2019-05-02T03:11:23.513Z,8.90
2019-05-02T03:14:06.153Z,9.00
2019-05-02T03:16:30.640Z,8.80
2019-05-02T03:18:59.194Z,8.80
2019-05-02T03:21:27.826Z,8.70
2019-05-02T03:24:03.032Z,8.70
2019-05-02T03:26:26.899Z,8.70
2019-05-02T03:28:58.688Z,8.80
2019-05-02T03:31:30.421Z,8.70
2019-05-02T03:34:00.735Z,8.70
2019-05-02T03:36:30.728Z,8.80
2019-05-02T03:38:57.293Z,8.70
2019-05-02T03:41:26.008Z,8.70
2019-05-02T03:44:09.707Z,8.70
2019-05-02T03:46:24.827Z,8.80
2019-05-02T03:49:06.261Z,8.80
2019-05-02T03:51:25.211Z,8.80
2019-05-02T03:54:05.745Z,8.80
2019-05-02T03:56:24.529Z,8.80
2019-05-02T03:58:55.985Z,8.80
2019-05-02T04:01:23.948Z,8.90
2019-05-02T04:03:53.267Z,9.00
2019-05-02T04:06:41.261Z,8.90
2019-05-02T04:09:12.887Z,8.80
2019-05-02T04:11:41.618Z,8.80
2019-05-02T04:14:17.518Z,8.80
2019-05-02T04:16:41.408Z,8.80
2019-05-02T04:19:10.198Z,8.90
2019-05-02T04:21:39.051Z,8.90
2019-05-02T04:24:13.728Z,8.90
2019-05-02T04:26:45.482Z,8.90
2019-05-02T04:29:10.598Z,8.80
2019-05-02T04:31:39.270Z,8.80
2019-05-02T04:34:15.100Z,8.80
2019-05-02T04:36:38.071Z,8.70
2019-05-02T04:39:14.982Z,8.80
2019-05-02T04:41:39.261Z,8.70
2019-05-02T04:44:09.049Z,8.80
2019-05-02T04:46:38.735Z,8.90
2019-05-02T04:49:09.195Z,8.90
2019-05-02T04:51:50.692Z,8.90
2019-05-02T04:54:21.803Z,9.00
2019-05-02T04:56:49.536Z,9.20
2019-05-02T04:59:19.909Z,9.50
2019-05-02T05:01:50.838Z,9.70
2019-05-02T05:04:14.699Z,9.80
2019-05-02T05:06:52.654Z,9.90
2019-05-02T05:09:14.978Z,10.10
2019-05-02T05:11:43.747Z,10.10
2019-05-02T05:14:12.453Z,9.90
2019-05-02T05:16:45.520Z,10.40
2019-05-02T05:19:12.124Z,10.40
2019-05-02T05:21:40.746Z,10.20
2019-05-02T05:24:10.999Z,10.00
2019-05-02T05:26:42.958Z,9.90
2019-05-02T05:29:13.961Z,9.80
2019-05-02T05:31:41.578Z,9.80
2019-05-02T05:34:10.136Z,9.90
2019-05-02T05:36:38.805Z,10.00
2019-05-02T05:39:11.436Z,10.00
2019-05-02T05:41:37.941Z,10.10
2019-05-02T05:44:07.738Z,10.10
2019-05-02T05:46:40.602Z,10.20
2019-05-02T05:49:10.461Z,10.30
2019-05-02T05:51:37.550Z,10.40
2019-05-02T05:54:07.769Z,10.50
2019-05-02T05:56:42.184Z,10.50
2019-05-02T05:59:07.933Z,10.50
2019-05-02T06:01:38.435Z,10.50
2019-05-02T06:04:08.037Z,10.80
2019-05-02T06:06:37.744Z,11.00
2019-05-02T06:09:08.178Z,11.00
2019-05-02T06:11:36.786Z,11.10
2019-05-02T06:14:06.439Z,12.20
2019-05-02T06:16:35.508Z,12.40
2019-05-02T06:19:04.261Z,12.10
2019-05-02T06:21:32.968Z,12.80
2019-05-02T06:24:01.530Z,13.40
2019-05-02T06:26:30.161Z,13.80
2019-05-02T06:28:58.743Z,14.20
2019-05-02T06:31:27.316Z,14.60
2019-05-02T06:33:55.871Z,14.40
2019-05-02T06:36:24.469Z,14.60
2019-05-02T06:38:56.741Z,15.30
2019-05-02T06:41:23.228Z,15.00
2019-05-02T06:43:51.904Z,14.70
2019-05-02T06:46:21.735Z,14.70
2019-05-02T06:48:52.295Z,14.90
2019-05-02T06:51:21.276Z,15.10
2019-05-02T06:53:49.836Z,14.80
2019-05-02T06:56:18.328Z,15.50
2019-05-02T06:58:46.922Z,15.40
2019-05-02T07:01:16.199Z,15.20
2019-05-02T07:03:46.359Z,15.20
2019-05-02T07:06:16.487Z,15.50
2019-05-02T07:08:45.203Z,15.40
2019-05-02T07:11:13.951Z,14.90
2019-05-02T07:13:43.812Z,14.90
2019-05-02T07:16:30.283Z,14.50
2019-05-02T07:18:51.381Z,14.00
2019-05-02T07:21:23.388Z,13.70
2019-05-02T07:23:53.525Z,13.50
2019-05-02T07:26:23.303Z,13.50
2019-05-02T07:28:51.680Z,13.50
2019-05-02T07:31:20.159Z,13.90
2019-05-02T07:33:48.729Z,14.00
2019-05-02T07:36:17.245Z,14.00
2019-05-02T07:38:45.908Z,14.00
2019-05-02T07:41:14.471Z,14.40
2019-05-02T07:43:43.061Z,14.60
2019-05-02T07:46:11.644Z,14.80
2019-05-02T07:48:40.269Z,14.80
2019-05-02T07:51:08.876Z,14.70
2019-05-02T07:53:37.435Z,14.70
2019-05-02T07:56:06.133Z,14.70
2019-05-02T07:58:38.446Z,14.80
2019-05-02T08:01:07.993Z,14.80
2019-05-02T08:03:35.591Z,15.10
2019-05-02T08:06:04.311Z,15.40
2019-05-02T08:08:32.871Z,15.70
2019-05-02T08:11:03.295Z,15.50
2019-05-02T08:13:32.055Z,15.60
2019-05-02T08:16:00.691Z,15.10
2019-05-02T08:18:30.248Z,15.30
2019-05-02T08:20:59.557Z,15.10
2019-05-02T08:23:28.116Z,15.30
2019-05-02T08:25:56.766Z,15.10
2019-05-02T08:28:27.926Z,15.00
2019-05-02T08:30:57.523Z,15.20
2019-05-02T08:33:29.464Z,15.70
2019-05-02T08:35:56.401Z,15.90
2019-05-02T08:38:24.970Z,16.30
2019-05-02T08:40:53.651Z,15.90
2019-05-02T08:43:22.246Z,15.80
2019-05-02T08:45:50.798Z,16.80
2019-05-02T08:48:19.325Z,16.00
2019-05-02T08:50:47.938Z,16.40
2019-05-02T08:53:19.660Z,16.60
2019-05-02T08:55:47.161Z,17.10
2019-05-02T08:58:16.110Z,17.70
2019-05-02T09:00:47.201Z,17.20
2019-05-02T09:03:15.513Z,16.60
2019-05-02T09:05:46.102Z,16.40
2019-05-02T09:08:16.558Z,16.30
2019-05-02T09:10:45.628Z,16.00
2019-05-02T09:13:18.084Z,15.50
2019-05-02T09:15:49.654Z,15.40
2019-05-02T09:18:14.764Z,15.80
2019-05-02T09:20:47.043Z,16.30
2019-05-02T09:23:13.729Z,16.50
2019-05-02T09:25:43.003Z,17.00
2019-05-02T09:28:17.059Z,16.20
2019-05-02T09:30:46.603Z,16.00
2019-05-02T09:33:14.629Z,15.80
2019-05-02T09:35:43.503Z,15.30
2019-05-02T09:38:12.925Z,16.40
2019-05-02T09:40:42.786Z,17.10
2019-05-02T09:43:13.043Z,18.10
2019-05-02T09:45:43.822Z,17.80
2019-05-02T09:48:12.636Z,17.20
2019-05-02T09:50:42.209Z,16.90
2019-05-02T09:53:13.139Z,16.50
2019-05-02T09:55:49.552Z,17.20
2019-05-02T09:58:19.506Z,17.50
2019-05-02T10:00:43.870Z,18.10
2019-05-02T10:03:13.027Z,17.50
2019-05-02T10:05:43.045Z,17.70
2019-05-02T10:08:13.877Z,17.60
2019-05-02T10:10:45.890Z,17.70
2019-05-02T10:13:13.030Z,17.80
2019-05-02T10:15:42.222Z,17.70
2019-05-02T10:18:13.695Z,17.90
2019-05-02T10:20:42.030Z,16.90
2019-05-02T10:23:11.960Z,16.50
2019-05-02T10:25:46.649Z,17.10
2019-05-02T10:28:12.932Z,17.40
2019-05-02T10:30:42.628Z,17.60
2019-05-02T10:33:12.391Z,17.50
2019-05-02T10:35:43.594Z,17.30
2019-05-02T10:38:17.656Z,17.20
2019-05-02T10:40:42.569Z,17.30
2019-05-02T10:43:11.748Z,17.40
2019-05-02T10:45:42.634Z,17.10
2019-05-02T10:48:22.814Z,17.50
2019-05-02T10:50:52.495Z,17.40
2019-05-02T10:53:22.919Z,17.90
2019-05-02T10:55:52.373Z,17.30
2019-05-02T10:58:23.949Z,17.00
2019-05-02T11:00:52.367Z,16.90
2019-05-02T11:03:23.194Z,17.70
2019-05-02T11:06:05.563Z,18.00
2019-05-02T11:08:31.712Z,18.30
2019-05-02T11:11:01.997Z,17.60
2019-05-02T11:13:46.999Z,17.50
2019-05-02T11:16:23.384Z,17.60
2019-05-02T11:18:59.375Z,17.70
2019-05-02T11:21:28.208Z,17.60
2019-05-02T11:23:56.941Z,17.70
2019-05-02T11:26:25.674Z,18.10
2019-05-02T11:28:54.423Z,17.90
2019-05-02T11:31:23.361Z,17.50
2019-05-02T11:33:52.833Z,17.20
2019-05-02T11:36:22.550Z,17.20
2019-05-02T11:38:59.749Z,17.00
2019-05-02T11:41:22.528Z,18.00
2019-05-02T11:43:54.118Z,18.70
2019-05-02T11:46:22.097Z,18.60
2019-05-02T11:48:56.224Z,18.70
2019-05-02T11:51:22.724Z,18.50
2019-05-02T11:53:52.622Z,18.60
2019-05-02T11:56:22.289Z,18.10
2019-05-02T11:58:52.866Z,18.50
2019-05-02T12:01:34.975Z,18.40
2019-05-02T12:03:52.677Z,18.70
2019-05-02T12:06:22.519Z,19.10
2019-05-02T12:08:52.562Z,19.20
2019-05-02T12:11:22.840Z,19.80
2019-05-02T12:13:56.799Z,19.30
2019-05-02T12:16:23.163Z,18.20
2019-05-02T12:18:53.588Z,18.40
2019-05-02T12:21:22.878Z,18.30
2019-05-02T12:23:52.614Z,18.50
2019-05-02T12:26:22.105Z,18.30
2019-05-02T12:28:52.691Z,18.40
2019-05-02T12:31:26.710Z,18.10
2019-05-02T12:33:56.171Z,17.40
2019-05-02T12:36:24.903Z,17.50
2019-05-02T12:38:54.125Z,18.00
2019-05-02T12:41:25.205Z,17.60
2019-05-02T12:43:52.993Z,18.40
2019-05-02T12:46:22.153Z,18.70
2019-05-02T12:48:52.030Z,19.10
2019-05-02T12:51:22.521Z,18.80
2019-05-02T12:53:52.800Z,18.60
2019-05-02T12:56:22.923Z,18.60
2019-05-02T12:58:52.979Z,18.60
2019-05-02T13:01:22.098Z,18.10
2019-05-02T13:03:52.628Z,18.20
2019-05-02T13:06:21.984Z,18.50
2019-05-02T13:08:52.507Z,18.30
2019-05-02T13:11:28.903Z,18.30
2019-05-02T13:13:57.770Z,18.30
2019-05-02T13:16:26.646Z,18.70
2019-05-02T13:18:57.377Z,19.10
2019-05-02T13:21:45.378Z,19.20
2019-05-02T13:24:16.622Z,18.90
2019-05-02T13:26:45.451Z,19.00
2019-05-02T13:29:14.780Z,19.10
2019-05-02T13:32:01.658Z,19.30
2019-05-02T13:34:48.752Z,18.70
2019-05-02T13:37:22.337Z,18.90
2019-05-02T13:39:53.126Z,18.50
2019-05-02T13:42:21.995Z,18.50
2019-05-02T13:44:58.185Z,18.60
2019-05-02T13:47:27.659Z,18.10
2019-05-02T13:50:00.708Z,17.50
2019-05-02T13:52:28.313Z,17.90
2019-05-02T13:54:56.947Z,18.60
2019-05-02T13:57:25.691Z,18.70
2019-05-02T13:59:54.254Z,18.70
2019-05-02T14:02:38.140Z,18.30
2019-05-02T14:05:09.810Z,18.70
2019-05-02T14:07:40.078Z,18.40
2019-05-02T14:10:22.824Z,18.60
2019-05-02T14:12:53.201Z,18.50
2019-05-02T14:15:23.420Z,18.20
2019-05-02T14:17:52.565Z,18.50
2019-05-02T14:20:22.514Z,18.70
2019-05-02T14:22:52.678Z,18.80
2019-05-02T14:25:22.366Z,18.70
2019-05-02T14:27:54.386Z,18.60
2019-05-02T14:30:35.733Z,18.70
2019-05-02T14:32:52.874Z,18.90
2019-05-02T14:35:27.813Z,18.90
2019-05-02T14:38:02.049Z,18.80
2019-05-02T14:40:32.419Z,18.80
2019-05-02T14:43:05.260Z,19.00
2019-05-02T14:45:33.898Z,19.00
2019-05-02T14:48:18.067Z,19.00
2019-05-02T14:50:32.086Z,19.00
2019-05-02T14:53:06.661Z,18.70
2019-05-02T14:55:36.861Z,18.30
2019-05-02T14:58:05.902Z,18.10
2019-05-02T15:00:39.438Z,18.50
2019-05-02T15:03:07.234Z,18.70
2019-05-02T15:05:36.321Z,18.50
2019-05-02T15:08:06.738Z,18.40
2019-05-02T15:10:48.931Z,18.00
2019-05-02T15:13:05.919Z,18.10
2019-05-02T15:15:40.707Z,18.40
2019-05-02T15:18:07.940Z,18.50
2019-05-02T15:20:38.734Z,18.50
2019-05-02T15:23:07.092Z,18.60
2019-05-02T15:25:35.581Z,18.70
2019-05-02T15:28:04.146Z,18.30
2019-05-02T15:30:37.008Z,18.10
2019-05-02T15:33:05.081Z,17.70
2019-05-02T15:35:37.978Z,17.70
2019-05-02T15:38:07.332Z,17.70
2019-05-02T15:40:48.052Z,17.40
2019-05-02T15:43:09.433Z,17.20
2019-05-02T15:45:43.513Z,17.50
2019-05-02T15:48:08.067Z,17.80
2019-05-02T15:50:43.638Z,18.00
2019-05-02T15:53:14.274Z,18.20
2019-05-02T15:55:43.968Z,18.10
2019-05-02T15:58:16.952Z,18.00
2019-05-02T16:01:05.115Z,17.70
2019-05-02T16:03:46.138Z,17.50
2019-05-02T16:06:16.532Z,17.50
2019-05-02T16:08:48.099Z,17.50
2019-05-02T16:11:18.239Z,17.80
2019-05-02T16:13:52.773Z,18.00
2019-05-02T16:16:21.752Z,18.20
2019-05-02T16:18:52.356Z,18.20
2019-05-02T16:21:32.609Z,18.30
2019-05-02T16:24:19.704Z,18.20
2019-05-02T16:26:49.600Z,17.70
2019-05-02T16:29:23.421Z,17.40
2019-05-02T16:32:03.545Z,17.30
2019-05-02T16:34:35.438Z,17.30
2019-05-02T16:37:13.643Z,17.30
2019-05-02T16:39:49.042Z,17.20
2019-05-02T16:42:12.522Z,17.30
2019-05-02T16:44:42.903Z,17.40
2019-05-02T16:47:14.004Z,17.40
2019-05-02T16:49:42.278Z,17.40
2019-05-02T16:52:12.781Z,17.20
2019-05-02T16:54:43.735Z,17.20
2019-05-02T16:57:12.602Z,17.10
2019-05-02T16:59:42.609Z,17.00
2019-05-02T17:02:12.283Z,16.80
2019-05-02T17:04:42.761Z,16.60
2019-05-02T17:07:13.216Z,16.50
2019-05-02T17:09:51.964Z,16.40
2019-05-02T17:12:20.286Z,16.30
2019-05-02T17:15:07.821Z,16.30
2019-05-02T17:17:36.586Z,16.20
2019-05-02T17:20:12.934Z,16.20
2019-05-02T17:22:38.632Z,16.30
2019-05-02T17:25:07.643Z,16.30
2019-05-02T17:27:36.354Z,16.30
2019-05-02T17:30:08.106Z,16.20
2019-05-02T17:32:37.774Z,16.20
2019-05-02T17:35:09.751Z,16.20
2019-05-02T17:37:40.616Z,16.10
2019-05-02T17:40:09.495Z,16.10
2019-05-02T17:42:38.109Z,16.10
2019-05-02T17:45:08.317Z,16.00
2019-05-02T17:47:37.727Z,15.90
2019-05-02T17:50:19.443Z,15.80
2019-05-02T17:52:56.205Z,15.80
2019-05-02T17:55:22.681Z,15.90
2019-05-02T17:57:51.638Z,15.70
2019-05-02T18:00:22.914Z,15.60
2019-05-02T18:02:52.020Z,15.40
2019-05-02T18:05:21.800Z,15.40
2019-05-02T18:07:52.531Z,15.30
2019-05-02T18:10:23.044Z,15.20
2019-05-02T18:12:59.833Z,15.20
2019-05-02T18:15:29.852Z,15.00
2019-05-02T18:17:59.705Z,14.90
2019-05-02T18:20:28.482Z,14.80
2019-05-02T18:22:57.288Z,14.80
2019-05-02T18:25:29.217Z,14.70
2019-05-02T18:27:57.879Z,14.60
2019-05-02T18:30:45.873Z,14.60
2019-05-02T18:33:14.674Z,14.60
2019-05-02T18:35:46.882Z,14.60
2019-05-02T18:38:15.876Z,14.60
2019-05-02T18:40:45.034Z,14.70
2019-05-02T18:43:13.714Z,14.70
2019-05-02T18:45:42.645Z,14.50
2019-05-02T18:48:12.696Z,14.30
2019-05-02T18:50:47.030Z,14.20
2019-05-02T18:53:23.490Z,14.10
2019-05-02T18:55:47.918Z,14.20
2019-05-02T18:58:16.600Z,14.20
2019-05-02T19:00:45.269Z,14.20
2019-05-02T19:03:17.133Z,14.20
2019-05-02T19:05:46.506Z,14.10
2019-05-02T19:08:27.579Z,14.10
2019-05-02T19:11:02.619Z,14.00
2019-05-02T19:13:16.934Z,14.00
2019-05-02T19:15:48.885Z,13.80
2019-05-02T19:18:18.015Z,13.70
2019-05-02T19:20:57.449Z,13.70
2019-05-02T19:23:25.618Z,13.80
2019-05-02T19:25:54.169Z,13.90
2019-05-02T19:28:37.219Z,14.00
2019-05-02T19:31:06.893Z,14.00
2019-05-02T19:33:37.292Z,13.90
2019-05-02T19:36:04.604Z,13.90
2019-05-02T19:38:34.833Z,13.80
2019-05-02T19:41:08.821Z,13.70
2019-05-02T19:43:40.357Z,13.60
2019-05-02T19:46:05.881Z,13.60
2019-05-02T19:48:36.983Z,13.60
2019-05-02T19:51:05.271Z,13.70
2019-05-02T19:53:34.238Z,13.70
2019-05-02T19:56:03.123Z,13.60
2019-05-02T19:58:36.866Z,13.70
2019-05-02T20:01:03.360Z,13.60
2019-05-02T20:03:32.430Z,13.60
2019-05-02T20:06:05.833Z,13.50
2019-05-02T20:08:32.762Z,13.20
2019-05-02T20:11:02.141Z,13.00
2019-05-02T20:13:32.636Z,12.80
2019-05-02T20:16:22.445Z,12.70
2019-05-02T20:18:52.500Z,12.70
2019-05-02T20:21:27.850Z,12.60
2019-05-02T20:23:56.042Z,12.60
2019-05-02T20:26:24.781Z,12.60
2019-05-02T20:28:54.910Z,12.60
2019-05-02T20:31:27.023Z,12.60
2019-05-02T20:33:56.944Z,12.40
2019-05-02T20:36:25.638Z,12.20
2019-05-02T20:38:54.302Z,12.20
2019-05-02T20:41:22.883Z,12.20
2019-05-02T20:43:51.748Z,12.20
2019-05-02T20:46:21.868Z,12.20
2019-05-02T20:48:52.441Z,12.30
2019-05-02T20:51:22.729Z,12.30
2019-05-02T20:53:52.568Z,12.40
2019-05-02T20:56:23.053Z,12.40
2019-05-02T20:58:52.636Z,12.30
2019-05-02T21:01:22.453Z,12.30
2019-05-02T21:03:52.130Z,12.40
2019-05-02T21:06:37.637Z,12.40
2019-05-02T21:08:57.244Z,12.40
2019-05-02T21:11:27.671Z,12.30
2019-05-02T21:13:56.307Z,12.20
2019-05-02T21:16:24.947Z,12.30
2019-05-02T21:19:12.842Z,12.30
2019-05-02T21:21:42.775Z,12.40
2019-05-02T21:24:14.688Z,12.30
2019-05-02T21:26:43.244Z,12.30
2019-05-02T21:29:12.233Z,12.20
2019-05-02T21:31:42.520Z,12.10
2019-05-02T21:34:11.740Z,12.00
2019-05-02T21:36:42.381Z,12.00
2019-05-02T21:39:12.527Z,11.90
2019-05-02T21:41:42.378Z,11.80
2019-05-02T21:44:12.968Z,11.80
2019-05-02T21:46:42.383Z,11.70
2019-05-02T21:49:12.055Z,11.70
2019-05-02T21:51:42.596Z,11.70
2019-05-02T21:54:13.016Z,11.60
2019-05-02T21:56:52.306Z,11.60
2019-05-02T21:59:22.501Z,11.50
2019-05-02T22:01:53.337Z,11.50
2019-05-02T22:04:22.425Z,11.50
2019-05-02T22:06:52.236Z,11.50
2019-05-02T22:09:23.145Z,11.50
2019-05-02T22:11:52.020Z,11.40
2019-05-02T22:14:22.267Z,11.40
2019-05-02T22:16:52.917Z,11.50
2019-05-02T22:19:21.553Z,11.50
2019-05-02T22:21:52.253Z,11.50
2019-05-02T22:24:20.448Z,11.30
2019-05-02T22:26:49.108Z,11.30
2019-05-02T22:29:17.656Z,11.30
2019-05-02T22:31:46.248Z,11.20
2019-05-02T22:34:14.955Z,11.20
2019-05-02T22:36:44.085Z,11.20
2019-05-02T22:39:31.676Z,11.00
2019-05-02T22:42:01.971Z,10.90
2019-05-02T22:44:32.520Z,10.90
2019-05-02T22:47:01.295Z,11.00
2019-05-02T22:49:31.694Z,11.10
2019-05-02T22:52:00.076Z,11.10
2019-05-02T22:57:48.538Z,11.10
2019-05-02T23:00:17.225Z,11.10
2019-05-02T23:02:45.765Z,11.10
2019-05-02T23:05:14.441Z,11.10
2019-05-02T23:07:43.068Z,11.00
2019-05-02T23:10:12.645Z,10.90
2019-05-02T23:12:42.356Z,10.80
2019-05-02T23:15:12.548Z,10.70
2019-05-02T23:17:42.763Z,10.50
2019-05-02T23:20:12.792Z,10.40
2019-05-02T23:22:42.127Z,10.30
2019-05-02T23:25:19.028Z,10.30
2019-05-02T23:27:49.266Z,10.10
2019-05-02T23:30:19.620Z,10.00
2019-05-02T23:32:48.249Z,10.00
2019-05-02T23:35:16.829Z,10.00
2019-05-02T23:37:45.456Z,10.00
2019-05-02T23:40:15.340Z,10.00
2019-05-02T23:42:44.001Z,9.90
2019-05-02T23:45:12.753Z,9.90
2019-05-02T23:47:42.172Z,9.80
2019-05-02T23:50:12.155Z,9.90
2019-05-02T23:52:41.154Z,9.90
2019-05-02T23:55:09.849Z,9.90
2019-05-02T23:57:38.544Z,9.90
